createdAt,value
2019-04-25T00:01:38.287Z,14.20
2019-04-25T00:04:08.922Z,14.20
2019-04-25T00:06:40.743Z,14.20
2019-04-25T00:09:13.647Z,14.00
2019-04-25T00:11:46.544Z,14.20
2019-04-25T00:14:16.260Z,14.40
2019-04-25T00:16:47.211Z,14.30
2019-04-25T00:19:19.669Z,14.10
2019-04-25T00:22:07.376Z,14.10
2019-04-25T00:25:15.945Z,14.00
2019-04-25T00:27:41.489Z,14.00
2019-04-25T00:30:11.410Z,14.20
2019-04-25T00:32:42.166Z,14.40
2019-04-25T00:35:11.786Z,14.50
2019-04-25T00:37:43.308Z,14.40
2019-04-25T00:40:13.495Z,14.70
2019-04-25T00:42:44.695Z,14.70
2019-04-25T00:45:14.824Z,14.80
2019-04-25T00:47:44.682Z,14.80
2019-04-25T00:50:16.356Z,14.50
2019-04-25T00:52:45.152Z,14.50
2019-04-25T00:55:25.815Z,14.40
2019-04-25T00:57:46.951Z,14.30
2019-04-25T01:00:34.334Z,14.30
2019-04-25T01:03:05.382Z,14.30
2019-04-25T01:05:34.818Z,14.20
2019-04-25T01:08:03.090Z,14.10
2019-04-25T01:10:31.637Z,14.00
2019-04-25T01:13:01.365Z,13.90
2019-04-25T01:15:31.425Z,13.80
2019-04-25T01:18:01.188Z,13.80
2019-04-25T01:20:29.546Z,13.80
2019-04-25T01:22:57.834Z,13.90
2019-04-25T01:25:38.578Z,13.80
2019-04-25T01:27:58.883Z,13.90
2019-04-25T01:30:28.570Z,13.80
2019-04-25T01:32:57.971Z,13.80
2019-04-25T01:35:54.288Z,13.80
2019-04-25T01:38:28.706Z,13.80
2019-04-25T01:41:29.202Z,13.80
2019-04-25T01:44:09.700Z,13.80
2019-04-25T01:46:40.937Z,13.80
2019-04-25T01:49:10.092Z,13.70
2019-04-25T01:51:39.169Z,13.70
2019-04-25T01:54:08.927Z,13.50
2019-04-25T01:56:38.432Z,13.50
2019-04-25T01:59:07.844Z,13.50
2019-04-25T02:01:38.942Z,13.50
2019-04-25T02:04:08.380Z,13.40
2019-04-25T02:06:37.625Z,13.30
2019-04-25T02:09:10.387Z,13.40
2019-04-25T02:11:46.113Z,13.40
2019-04-25T02:14:15.795Z,13.40
2019-04-25T02:16:45.221Z,13.30
2019-04-25T02:19:14.649Z,13.20
2019-04-25T02:21:44.542Z,13.30
2019-04-25T02:24:14.307Z,13.10
2019-04-25T02:26:44.252Z,13.10
2019-04-25T02:29:14.213Z,13.20
2019-04-25T02:31:46.124Z,13.10
2019-04-25T02:34:18.058Z,13.10
2019-04-25T02:36:46.923Z,13.20
2019-04-25T02:39:18.669Z,13.20
2019-04-25T02:41:48.701Z,13.20
2019-04-25T02:44:17.763Z,13.20
2019-04-25T02:47:17.286Z,13.20
2019-04-25T02:50:05.468Z,13.40
2019-04-25T02:52:38.464Z,13.20
2019-04-25T02:55:10.709Z,13.20
2019-04-25T02:57:38.707Z,13.20
2019-04-25T03:00:10.018Z,13.20
2019-04-25T03:02:39.786Z,13.10
2019-04-25T03:05:09.901Z,13.00
2019-04-25T03:07:39.896Z,12.90
2019-04-25T03:10:11.364Z,12.90
2019-04-25T03:12:41.593Z,12.80
2019-04-25T03:15:15.029Z,12.90
2019-04-25T03:17:44.624Z,12.80
2019-04-25T03:20:35.301Z,12.80
2019-04-25T03:23:14.658Z,12.80
2019-04-25T03:25:43.850Z,12.80
2019-04-25T03:28:15.517Z,12.80
2019-04-25T03:30:45.288Z,12.80
2019-04-25T03:33:19.628Z,12.80
2019-04-25T03:35:45.225Z,12.80
2019-04-25T03:38:14.524Z,12.80
2019-04-25T03:40:44.019Z,12.80
2019-04-25T03:43:14.918Z,12.90
2019-04-25T03:45:45.284Z,12.90
2019-04-25T03:48:14.944Z,12.90
2019-04-25T03:50:44.221Z,12.80
2019-04-25T03:53:13.990Z,12.80
2019-04-25T03:55:44.363Z,12.80
2019-04-25T03:58:14.659Z,12.80
2019-04-25T04:00:44.718Z,12.80
2019-04-25T04:03:15.106Z,12.80
2019-04-25T04:05:44.801Z,12.80
2019-04-25T04:08:15.708Z,12.80
2019-04-25T04:10:45.555Z,12.90
2019-04-25T04:13:14.597Z,12.90
2019-04-25T04:15:45.529Z,12.90
2019-04-25T04:18:26.552Z,13.00
2019-04-25T04:21:03.176Z,13.00
2019-04-25T04:23:44.210Z,12.90
2019-04-25T04:26:16.307Z,12.90
2019-04-25T04:28:46.675Z,12.90
2019-04-25T04:31:16.650Z,12.80
2019-04-25T04:33:46.141Z,12.80
2019-04-25T04:36:19.001Z,12.80
2019-04-25T04:38:49.427Z,12.80
2019-04-25T04:41:21.506Z,12.80
2019-04-25T04:43:50.860Z,12.70
2019-04-25T04:46:20.586Z,12.70
2019-04-25T04:48:50.655Z,12.80
2019-04-25T04:51:20.489Z,12.80
2019-04-25T04:53:50.135Z,12.80
2019-04-25T04:56:19.849Z,12.90
2019-04-25T04:58:49.290Z,13.00
2019-04-25T05:01:24.992Z,13.00
2019-04-25T05:04:10.699Z,13.00
2019-04-25T05:06:47.033Z,13.10
2019-04-25T05:09:19.827Z,13.20
2019-04-25T05:11:49.584Z,13.20
2019-04-25T05:14:19.572Z,13.30
2019-04-25T05:16:49.597Z,13.20
2019-04-25T05:19:19.957Z,13.30
2019-04-25T05:21:49.934Z,13.40
2019-04-25T05:24:19.749Z,13.30
2019-04-25T05:26:49.293Z,13.40
2019-04-25T05:29:21.273Z,13.50
2019-04-25T05:31:54.128Z,13.50
2019-04-25T05:34:25.824Z,13.60
2019-04-25T05:36:55.552Z,13.70
2019-04-25T05:39:25.125Z,13.70
2019-04-25T05:42:04.284Z,13.70
2019-04-25T05:44:34.370Z,13.80
2019-04-25T05:47:04.227Z,13.80
2019-04-25T05:49:34.264Z,13.90
2019-04-25T05:52:04.381Z,13.90
2019-04-25T05:54:34.498Z,14.00
2019-04-25T05:57:04.313Z,14.10
2019-04-25T05:59:34.055Z,14.20
2019-04-25T06:02:03.966Z,14.30
2019-04-25T06:04:33.530Z,14.30
2019-04-25T06:07:02.993Z,14.50
2019-04-25T06:09:54.990Z,14.50
2019-04-25T06:12:53.604Z,14.50
2019-04-25T06:15:26.235Z,14.60
2019-04-25T06:18:21.190Z,14.60
2019-04-25T06:20:50.781Z,14.70
2019-04-25T06:23:39.100Z,14.70
2019-04-25T06:26:19.876Z,14.80
2019-04-25T06:28:52.061Z,14.80
2019-04-25T06:31:11.586Z,14.80
2019-04-25T06:33:41.052Z,14.90
2019-04-25T06:36:13.876Z,15.00
2019-04-25T06:38:44.351Z,15.20
2019-04-25T06:41:13.790Z,15.20
2019-04-25T06:43:44.857Z,15.30
2019-04-25T06:46:33.859Z,15.40
2019-04-25T06:49:27.768Z,15.50
2019-04-25T06:51:57.979Z,15.60
2019-04-25T06:54:28.086Z,15.70
2019-04-25T06:56:57.380Z,15.90
2019-04-25T06:59:27.549Z,16.10
2019-04-25T07:01:57.569Z,16.20
2019-04-25T07:04:27.940Z,16.30
2019-04-25T07:07:09.352Z,16.50
2019-04-25T07:09:30.020Z,16.70
2019-04-25T07:12:00.398Z,16.80
2019-04-25T07:14:31.825Z,17.10
2019-04-25T07:19:54.135Z,17.50
2019-04-25T07:23:34.486Z,18.40
2019-04-25T07:26:20.516Z,18.70
2019-04-25T07:29:05.359Z,18.90
2019-04-25T07:31:48.814Z,19.00
2019-04-25T07:34:20.468Z,19.20
2019-04-25T07:36:51.160Z,19.20
2019-04-25T07:39:21.006Z,19.10
2019-04-25T07:41:54.090Z,19.00
2019-04-25T07:44:35.311Z,19.10
2019-04-25T07:46:55.945Z,19.60
2019-04-25T07:49:26.842Z,19.90
2019-04-25T07:51:57.809Z,20.20
2019-04-25T07:54:28.818Z,20.40
2019-04-25T07:57:08.387Z,20.40
2019-04-25T07:59:37.499Z,21.00
2019-04-25T08:02:06.719Z,21.50
2019-04-25T08:04:37.048Z,21.60
2019-04-25T08:07:06.307Z,22.20
2019-04-25T08:09:37.070Z,22.40
2019-04-25T08:12:07.190Z,23.00
2019-04-25T08:14:50.752Z,23.20
2019-04-25T08:17:39.907Z,24.10
2019-04-25T08:20:10.093Z,24.70
2019-04-25T08:22:51.955Z,24.70
2019-04-25T08:25:13.751Z,25.40
2019-04-25T08:27:44.967Z,25.80
2019-04-25T08:30:15.442Z,26.10
2019-04-25T08:32:44.898Z,26.20
2019-04-25T08:35:16.071Z,26.40
2019-04-25T08:37:44.855Z,26.60
2019-04-25T08:40:14.800Z,26.70
2019-04-25T08:42:44.963Z,26.90
2019-04-25T08:45:18.159Z,27.60
2019-04-25T08:47:47.318Z,27.90
2019-04-25T08:50:31.384Z,28.80
2019-04-25T08:52:58.935Z,28.80
2019-04-25T08:55:45.974Z,29.50
2019-04-25T08:58:35.403Z,30.30
2019-04-25T09:01:16.071Z,30.70
2019-04-25T09:03:53.882Z,30.90
2019-04-25T09:06:24.401Z,30.90
2019-04-25T09:08:54.081Z,30.90
2019-04-25T09:11:24.488Z,31.50
2019-04-25T09:13:53.961Z,32.40
2019-04-25T09:16:23.940Z,32.40
2019-04-25T09:18:53.960Z,33.10
2019-04-25T09:21:23.867Z,32.90
2019-04-25T09:23:53.617Z,33.10
2019-04-25T09:26:24.136Z,32.40
2019-04-25T09:28:53.772Z,32.20
2019-04-25T09:31:23.707Z,31.80
2019-04-25T09:33:54.952Z,31.30
2019-04-25T09:36:24.729Z,31.40
2019-04-25T09:38:56.119Z,30.50
2019-04-25T09:41:25.901Z,29.80
2019-04-25T09:43:59.583Z,29.40
2019-04-25T09:46:31.823Z,29.20
2019-04-25T09:49:10.150Z,29.30
2019-04-25T09:51:55.974Z,29.10
2019-04-25T09:54:47.269Z,29.10
2019-04-25T09:57:33.994Z,28.90
2019-04-25T10:00:03.752Z,29.30
2019-04-25T10:02:33.480Z,29.80
2019-04-25T10:05:04.249Z,30.80
2019-04-25T10:07:33.434Z,30.60
2019-04-25T10:10:03.733Z,30.90
2019-04-25T10:12:34.171Z,30.70
2019-04-25T10:15:28.819Z,30.40
2019-04-25T10:17:58.318Z,30.70
2019-04-25T10:20:27.852Z,31.20
2019-04-25T10:22:57.411Z,31.00
2019-04-25T10:25:26.508Z,30.70
2019-04-25T10:27:55.850Z,31.20
2019-04-25T10:30:26.001Z,31.40
2019-04-25T10:32:55.182Z,31.40
2019-04-25T10:35:24.470Z,31.10
2019-04-25T10:37:55.032Z,30.50
2019-04-25T10:40:25.073Z,29.70
2019-04-25T10:42:56.182Z,28.70
2019-04-25T10:45:26.508Z,27.80
2019-04-25T10:47:56.570Z,27.50
2019-04-25T10:50:25.907Z,27.50
2019-04-25T10:52:55.725Z,27.30
2019-04-25T10:55:25.184Z,27.00
2019-04-25T10:57:56.330Z,26.70
2019-04-25T11:00:36.519Z,26.40
2019-04-25T11:03:20.031Z,26.10
2019-04-25T11:05:49.848Z,26.10
2019-04-25T11:08:19.537Z,26.30
2019-04-25T11:10:50.007Z,26.20
2019-04-25T11:13:20.036Z,26.00
2019-04-25T11:15:49.786Z,26.00
2019-04-25T11:18:20.612Z,26.00
2019-04-25T11:20:53.587Z,26.30
2019-04-25T11:23:23.962Z,26.30
2019-04-25T11:25:54.257Z,26.30
2019-04-25T11:28:23.810Z,26.20
2019-04-25T11:30:54.479Z,26.20
2019-04-25T11:33:25.451Z,26.00
2019-04-25T11:35:56.261Z,25.80
2019-04-25T11:38:36.152Z,25.90
2019-04-25T11:41:13.980Z,25.90
2019-04-25T11:43:46.247Z,25.90
2019-04-25T11:46:16.611Z,25.90
2019-04-25T11:48:46.404Z,25.90
2019-04-25T11:51:20.110Z,25.80
2019-04-25T11:53:49.702Z,25.70
2019-04-25T11:56:20.342Z,25.70
2019-04-25T11:58:50.647Z,25.60
2019-04-25T12:01:24.308Z,25.70
2019-04-25T12:03:55.781Z,25.60
2019-04-25T12:06:26.704Z,25.50
2019-04-25T12:08:57.140Z,25.50
2019-04-25T12:11:28.830Z,25.50
2019-04-25T12:13:58.296Z,25.70
2019-04-25T12:16:32.473Z,25.80
2019-04-25T12:19:02.819Z,25.80
2019-04-25T12:21:34.145Z,25.70
2019-04-25T12:24:05.811Z,25.60
2019-04-25T12:26:35.994Z,25.50
2019-04-25T12:29:05.526Z,25.60
2019-04-25T12:31:35.255Z,25.80
2019-04-25T12:34:04.650Z,25.90
2019-04-25T12:36:35.567Z,25.90
2019-04-25T12:39:08.435Z,25.80
2019-04-25T12:41:38.694Z,25.60
2019-04-25T12:44:34.172Z,25.60
2019-04-25T12:47:10.129Z,25.60
2019-04-25T12:49:40.607Z,25.60
2019-04-25T12:52:10.854Z,25.80
2019-04-25T12:54:40.587Z,25.80
2019-04-25T12:57:11.698Z,25.80
2019-04-25T12:59:41.507Z,25.80
2019-04-25T13:02:11.359Z,25.70
2019-04-25T13:04:41.040Z,25.50
2019-04-25T13:07:10.907Z,25.40
2019-04-25T13:09:40.179Z,25.40
2019-04-25T13:12:10.881Z,25.30
2019-04-25T13:14:41.820Z,25.40
2019-04-25T13:17:11.407Z,25.50
2019-04-25T13:19:40.742Z,25.50
2019-04-25T13:22:11.315Z,25.40
2019-04-25T13:24:40.895Z,25.10
2019-04-25T13:27:16.585Z,25.10
2019-04-25T13:29:58.813Z,25.10
2019-04-25T13:33:04.463Z,25.00
2019-04-25T13:35:39.223Z,25.00
2019-04-25T13:38:11.117Z,25.10
2019-04-25T13:40:41.880Z,25.10
2019-04-25T13:43:11.216Z,25.10
2019-04-25T13:45:40.876Z,25.20
2019-04-25T13:48:10.248Z,25.30
2019-04-25T13:50:39.961Z,25.10
2019-04-25T13:53:09.365Z,24.90
2019-04-25T13:55:39.553Z,25.00
2019-04-25T13:58:09.190Z,25.00
2019-04-25T14:00:38.833Z,25.20
2019-04-25T14:03:08.507Z,25.30
2019-04-25T14:05:38.123Z,25.20
2019-04-25T14:08:08.105Z,25.10
2019-04-25T14:10:37.485Z,25.10
2019-04-25T14:13:07.680Z,24.90
2019-04-25T14:15:39.235Z,24.90
2019-04-25T14:18:36.481Z,24.90
2019-04-25T14:21:13.282Z,24.80
2019-04-25T14:23:44.236Z,24.70
2019-04-25T14:26:14.170Z,24.70
2019-04-25T14:28:44.272Z,24.60
2019-04-25T14:31:30.372Z,24.60
2019-04-25T14:33:47.700Z,24.60
2019-04-25T14:36:17.566Z,24.60
2019-04-25T14:38:47.845Z,24.70
2019-04-25T14:41:17.074Z,24.70
2019-04-25T14:43:46.895Z,24.60
2019-04-25T14:46:16.132Z,24.60
2019-04-25T14:48:45.834Z,24.60
2019-04-25T14:51:16.566Z,24.60
2019-04-25T14:53:46.415Z,24.50
2019-04-25T14:56:25.911Z,24.50
2019-04-25T14:58:55.642Z,24.50
2019-04-25T15:01:26.063Z,24.50
2019-04-25T15:03:55.675Z,24.50
2019-04-25T15:06:25.758Z,24.50
2019-04-25T15:08:55.766Z,24.50
2019-04-25T15:11:25.361Z,24.50
2019-04-25T15:13:54.718Z,24.60
2019-04-25T15:16:24.758Z,24.60
2019-04-25T15:18:54.495Z,24.70
2019-04-25T15:21:25.183Z,24.80
2019-04-25T15:24:00.292Z,24.80
2019-04-25T15:26:26.827Z,24.70
2019-04-25T15:28:56.622Z,24.70
2019-04-25T15:31:29.998Z,24.60
2019-04-25T15:34:02.367Z,24.60
2019-04-25T15:36:41.091Z,24.60
2019-04-25T15:39:41.318Z,24.50
2019-04-25T15:42:41.900Z,24.40
2019-04-25T15:45:31.178Z,24.40
2019-04-25T15:48:00.815Z,24.40
2019-04-25T15:50:32.210Z,24.40
2019-04-25T15:53:03.895Z,24.40
2019-04-25T15:55:33.593Z,24.40
2019-04-25T15:58:03.448Z,24.40
2019-04-25T16:00:37.044Z,24.40
2019-04-25T16:03:06.837Z,24.30
2019-04-25T16:05:38.334Z,24.30
2019-04-25T16:08:09.753Z,24.30
2019-04-25T16:10:39.088Z,24.40
2019-04-25T16:13:09.092Z,24.40
2019-04-25T16:15:41.262Z,24.40
2019-04-25T16:18:10.732Z,24.30
2019-04-25T16:20:40.276Z,24.40
2019-04-25T16:23:09.887Z,24.40
2019-04-25T16:25:39.166Z,24.50
2019-04-25T16:28:09.603Z,24.50
2019-04-25T16:30:40.816Z,24.60
2019-04-25T16:33:10.342Z,24.60
2019-04-25T16:35:40.906Z,24.60
2019-04-25T16:38:11.362Z,24.50
2019-04-25T16:40:41.484Z,24.40
2019-04-25T16:43:14.111Z,24.40
2019-04-25T16:45:45.138Z,24.40
2019-04-25T16:48:16.116Z,24.30
2019-04-25T16:50:47.922Z,24.30
2019-04-25T16:53:17.905Z,24.30
2019-04-25T16:55:47.787Z,24.20
2019-04-25T16:58:19.070Z,24.20
2019-04-25T17:01:04.885Z,24.10
2019-04-25T17:03:35.832Z,24.10
2019-04-25T17:06:06.317Z,24.10
2019-04-25T17:08:36.317Z,24.00
2019-04-25T17:11:06.629Z,24.00
2019-04-25T17:13:39.688Z,23.90
2019-04-25T17:16:27.398Z,23.80
2019-04-25T17:19:00.802Z,23.70
2019-04-25T17:21:34.766Z,23.70
2019-04-25T17:24:04.240Z,23.70
2019-04-25T17:26:34.738Z,23.60
2019-04-25T17:29:08.107Z,23.50
2019-04-25T17:32:04.730Z,23.50
2019-04-25T17:34:53.945Z,23.40
2019-04-25T17:37:46.457Z,23.40
2019-04-25T17:40:20.591Z,23.30
2019-04-25T17:42:54.138Z,23.30
2019-04-25T17:45:30.993Z,23.20
2019-04-25T17:48:00.689Z,23.20
2019-04-25T17:50:29.992Z,23.10
2019-04-25T17:52:59.793Z,23.10
2019-04-25T17:55:30.132Z,23.00
2019-04-25T17:58:00.822Z,22.90
2019-04-25T18:00:37.648Z,22.90
2019-04-25T18:03:12.429Z,22.80
2019-04-25T18:05:41.753Z,22.70
2019-04-25T18:08:11.163Z,22.70
2019-04-25T18:10:41.987Z,22.70
2019-04-25T18:13:14.012Z,22.60
2019-04-25T18:16:12.531Z,22.50
2019-04-25T18:19:05.587Z,22.50
2019-04-25T18:21:35.824Z,22.50
2019-04-25T18:24:24.308Z,22.50
2019-04-25T18:27:00.834Z,22.50
2019-04-25T18:29:30.586Z,22.40
2019-04-25T18:32:02.967Z,22.30
2019-04-25T18:34:57.798Z,22.20
2019-04-25T18:38:06.508Z,22.10
2019-04-25T18:40:59.789Z,22.00
2019-04-25T18:43:33.913Z,22.00
2019-04-25T18:46:17.412Z,21.80
2019-04-25T18:48:51.347Z,21.80
2019-04-25T18:51:22.048Z,21.80
2019-04-25T18:54:29.363Z,21.70
2019-04-25T18:57:41.602Z,21.70
2019-04-25T19:00:37.805Z,21.60
2019-04-25T19:03:38.153Z,21.60
2019-04-25T19:06:10.663Z,21.50
2019-04-25T19:08:53.201Z,21.50
2019-04-25T19:11:23.459Z,21.40
2019-04-25T19:13:56.423Z,21.40
2019-04-25T19:16:27.909Z,21.30
2019-04-25T19:18:58.411Z,21.30
2019-04-25T19:21:30.154Z,21.20
2019-04-25T19:23:59.988Z,21.20
2019-04-25T19:26:29.655Z,21.20
2019-04-25T19:29:00.071Z,21.10
2019-04-25T19:31:44.471Z,21.10
2019-04-25T19:34:14.391Z,21.10
2019-04-25T19:36:52.253Z,21.10
2019-04-25T19:39:26.196Z,21.00
2019-04-25T19:42:25.110Z,21.00
2019-04-25T19:44:55.311Z,21.00
2019-04-25T19:47:28.130Z,21.00
2019-04-25T19:51:03.587Z,20.90
2019-04-25T19:57:49.104Z,21.00
2019-04-25T20:00:36.869Z,21.10
2019-04-25T20:03:21.134Z,21.10
2019-04-25T20:06:29.640Z,21.00
2019-04-25T20:09:13.373Z,20.90
2019-04-25T20:11:47.335Z,20.90
2019-04-25T20:14:34.024Z,21.10
2019-04-25T20:17:05.034Z,21.10
2019-04-25T20:19:34.990Z,21.10
2019-04-25T20:22:06.649Z,21.10
2019-04-25T20:24:46.330Z,21.10
2019-04-25T20:27:21.187Z,21.00
2019-04-25T20:29:52.708Z,21.00
2019-04-25T20:32:25.026Z,21.00
2019-04-25T20:34:58.425Z,21.00
2019-04-25T20:37:28.338Z,20.90
2019-04-25T20:40:01.923Z,20.80
2019-04-25T20:42:35.739Z,20.80
2019-04-25T20:45:06.307Z,20.70
2019-04-25T20:47:38.929Z,20.80
2019-04-25T20:50:09.196Z,20.80
2019-04-25T20:52:40.804Z,20.70
2019-04-25T20:55:10.356Z,20.70
2019-04-25T20:57:41.837Z,20.60
2019-04-25T21:00:11.591Z,20.70
2019-04-25T21:02:42.928Z,20.70
2019-04-25T21:05:14.901Z,20.70
2019-04-25T21:07:44.862Z,20.60
2019-04-25T21:10:15.105Z,20.60
2019-04-25T21:12:44.567Z,20.40
2019-04-25T21:15:25.040Z,20.40
2019-04-25T21:18:18.609Z,20.40
2019-04-25T21:20:48.287Z,20.30
2019-04-25T21:23:17.524Z,20.40
2019-04-25T21:25:49.119Z,20.40
2019-04-25T21:28:18.814Z,20.50
2019-04-25T21:31:07.902Z,20.40
2019-04-25T21:33:38.074Z,20.40
2019-04-25T21:36:10.101Z,20.40
2019-04-25T21:38:40.992Z,20.40
2019-04-25T21:41:29.474Z,20.40
2019-04-25T21:44:03.380Z,20.30
2019-04-25T21:46:33.558Z,20.30
2019-04-25T21:49:03.536Z,20.20
2019-04-25T21:51:35.843Z,20.20
2019-04-25T21:54:05.793Z,20.20
2019-04-25T21:56:35.389Z,20.20
2019-04-25T21:59:07.754Z,20.20
2019-04-25T22:01:40.559Z,20.10
2019-04-25T22:04:10.400Z,19.90
2019-04-25T22:06:40.346Z,19.90
2019-04-25T22:09:13.621Z,19.90
2019-04-25T22:11:43.479Z,20.00
2019-04-25T22:14:13.955Z,19.90
2019-04-25T22:16:43.655Z,20.00
2019-04-25T22:19:14.510Z,20.00
2019-04-25T22:21:44.465Z,20.00
2019-04-25T22:24:14.445Z,20.00
2019-04-25T22:26:43.340Z,19.80
2019-04-25T22:29:14.291Z,19.80
2019-04-25T22:32:01.939Z,19.70
2019-04-25T22:34:52.813Z,19.60
2019-04-25T22:37:22.426Z,19.50
2019-04-25T22:39:52.093Z,19.40
2019-04-25T22:42:22.478Z,19.40
2019-04-25T22:44:54.735Z,19.30
2019-04-25T22:47:26.723Z,19.30
2019-04-25T22:49:56.278Z,19.30
2019-04-25T22:52:30.452Z,19.30
2019-04-25T22:55:02.194Z,19.30
2019-04-25T22:57:32.510Z,19.30
2019-04-25T23:00:03.235Z,19.30
2019-04-25T23:02:42.026Z,19.30
2019-04-25T23:05:36.457Z,19.30
2019-04-25T23:08:05.979Z,19.20
2019-04-25T23:10:35.394Z,19.20
2019-04-25T23:13:04.707Z,19.30
2019-04-25T23:15:34.135Z,19.20
2019-04-25T23:18:04.342Z,19.20
2019-04-25T23:20:32.665Z,19.10
2019-04-25T23:23:00.787Z,19.10
2019-04-25T23:25:37.599Z,19.20
2019-04-25T23:28:12.808Z,19.20
2019-04-25T23:31:19.194Z,19.20
2019-04-25T23:33:47.348Z,19.20
2019-04-25T23:36:16.233Z,19.00
2019-04-25T23:38:45.743Z,19.00
2019-04-25T23:41:15.726Z,18.90
2019-04-25T23:43:45.179Z,18.90
2019-04-25T23:46:14.986Z,18.90
2019-04-25T23:48:46.201Z,18.90
2019-04-25T23:51:18.091Z,18.90
2019-04-25T23:53:47.780Z,18.90
2019-04-25T23:56:17.339Z,18.90
2019-04-25T23:58:46.821Z,19.00
